Time;durP1;ratioP1;P1;durP2;ratioP2;P2;SDS_P1;SDS_P2;PMS_P1;PMS_P2;Temp;Humidity;BMP_temperature;BMP_pressure;BME280_temperature;BME280_humidity;BME280_pressure;Samples;Min_cycle;Max_cycle;Signal;HPM_P1;HPM_P2
2023/01/09 00:02:22;;;;;;;6.15;1.58;;;6.40;99.90;;;;;;5054673;28;20094;-52
2023/01/09 00:04:47;;;;;;;5.00;1.40;;;6.60;99.90;;;;;;5056348;28;20178;-49
2023/01/09 00:07:13;;;;;;;5.22;1.30;;;6.60;99.90;;;;;;5055926;28;20097;-50
2023/01/09 00:09:39;;;;;;;5.53;1.52;;;6.60;99.90;;;;;;5056085;28;20043;-48
2023/01/09 00:12:05;;;;;;;7.25;1.40;;;6.50;99.90;;;;;;5056003;28;20083;-47
2023/01/09 00:14:31;;;;;;;4.60;1.27;;;;;;;;;;5054979;28;20047;-51
2023/01/09 00:16:56;;;;;;;4.00;1.00;;;6.40;99.90;;;;;;5053792;28;20056;-51
2023/01/09 00:19:22;;;;;;;3.00;1.00;;;6.60;99.90;;;;;;5054355;28;20036;-47
2023/01/09 00:21:48;;;;;;;3.53;0.95;;;6.50;99.90;;;;;;5054157;28;20040;-49
2023/01/09 00:24:13;;;;;;;4.25;0.80;;;6.40;99.90;;;;;;5054252;28;20052;-49
2023/01/09 00:26:39;;;;;;;5.93;1.40;;;6.50;99.90;;;;;;5053876;28;20060;-49
2023/01/09 00:29:05;;;;;;;3.88;0.80;;;6.60;99.90;;;;;;5053454;28;20711;-47
2023/01/09 00:31:31;;;;;;;3.67;1.00;;;6.40;99.90;;;;;;5054148;28;20071;-51
2023/01/09 00:34:06;;;;;;;3.35;0.80;;;6.50;99.90;;;;;;5053642;28;20083;-51
2023/01/09 00:36:32;;;;;;;4.63;1.05;;;6.50;99.90;;;;;;5054439;28;20044;-47
2023/01/09 00:38:58;;;;;;;3.58;0.57;;;6.60;99.90;;;;;;5053196;28;20051;-50
2023/01/09 00:41:42;;;;;;;2.50;0.70;;;6.50;99.90;;;;;;5053725;28;20051;-49
2023/01/09 00:44:13;;;;;;;1.90;0.95;;;6.70;99.90;;;;;;5053956;28;20106;-51
2023/01/09 00:46:43;;;;;;;3.42;0.70;;;6.50;99.90;;;;;;5053499;28;20044;-49
2023/01/09 00:49:10;;;;;;;3.13;0.88;;;6.50;99.90;;;;;;5053311;28;20086;-51
2023/01/09 00:51:38;;;;;;;1.45;0.43;;;6.40;99.90;;;;;;5053060;28;20040;-50
2023/01/09 00:54:04;;;;;;;2.80;0.50;;;6.30;99.90;;;;;;5053062;28;20044;-52
2023/01/09 00:56:31;;;;;;;2.05;0.55;;;6.40;99.90;;;;;;5052643;28;20071;-50
2023/01/09 00:58:56;;;;;;;2.08;0.50;;;6.30;99.90;;;;;;5053899;28;20280;-48
2023/01/09 01:01:23;;;;;;;3.13;1.10;;;;;;;;;;5053049;28;20037;-50
2023/01/09 01:03:48;;;;;;;3.28;0.85;;;6.30;99.90;;;;;;5053127;28;20051;-51
2023/01/09 01:08:59;;;;;;;5.47;0.80;;;6.20;99.90;;;;;;5053447;28;20144;-51
2023/01/09 01:11:25;;;;;;;2.53;0.60;;;6.30;99.90;;;;;;5054822;28;20123;-53
2023/01/09 01:13:51;;;;;;;2.72;0.80;;;6.20;99.90;;;;;;5053769;28;20515;-48
2023/01/09 01:16:17;;;;;;;2.95;0.77;;;6.30;99.90;;;;;;5054107;28;20047;-52
2023/01/09 01:18:43;;;;;;;2.95;0.82;;;6.30;99.90;;;;;;5054211;28;20036;-51
2023/01/09 01:21:11;;;;;;;2.33;0.80;;;6.30;99.90;;;;;;5054394;28;20493;-50
2023/01/09 01:23:37;;;;;;;4.20;0.95;;;6.30;99.90;;;;;;5053292;28;20090;-50
2023/01/09 01:26:11;;;;;;;3.40;1.00;;;6.30;99.90;;;;;;5051976;28;20087;-52
2023/01/09 01:28:37;;;;;;;6.57;1.73;;;;;;;;;;5053260;28;20048;-50
2023/01/09 01:31:04;;;;;;;5.18;1.20;;;6.30;99.90;;;;;;5053852;28;20151;-51
2023/01/09 01:33:30;;;;;;;3.65;1.20;;;6.30;99.90;;;;;;5051788;28;21086;-51
2023/01/09 01:36:01;;;;;;;2.88;1.00;;;6.20;99.90;;;;;;5053115;28;20225;-53
2023/01/09 01:38:28;;;;;;;5.43;1.45;;;6.30;99.90;;;;;;5053962;28;20074;-51
2023/01/09 01:40:54;;;;;;;3.97;1.30;;;6.40;99.90;;;;;;5053615;28;20492;-52
2023/01/09 01:43:20;;;;;;;3.63;1.55;;;6.30;99.90;;;;;;5051320;28;20056;-51
2023/01/09 01:45:46;;;;;;;5.55;1.48;;;6.30;99.90;;;;;;5052353;28;20105;-53
2023/01/09 01:48:16;;;;;;;8.20;2.00;;;6.40;99.90;;;;;;5051233;28;20068;-52
2023/01/09 01:51:05;;;;;;;4.15;1.58;;;6.30;99.90;;;;;;5052786;28;20110;-51
2023/01/09 01:53:40;;;;;;;5.60;1.90;;;6.30;99.90;;;;;;5051983;28;20087;-52
2023/01/09 01:56:06;;;;;;;8.18;1.65;;;;;;;;;;5051589;28;20036;-52
2023/01/09 01:58:35;;;;;;;9.38;1.90;;;6.40;99.90;;;;;;5052541;28;20111;-53
2023/01/09 02:01:01;;;;;;;6.80;1.73;;;6.20;99.90;;;;;;5051373;28;20548;-51
2023/01/09 02:03:28;;;;;;;5.20;1.83;;;6.20;99.90;;;;;;5050010;28;20109;-51
2023/01/09 02:05:54;;;;;;;8.68;2.03;;;;;;;;;;5052288;28;20041;-50
2023/01/09 02:08:21;;;;;;;6.78;2.10;;;6.10;99.90;;;;;;5051748;28;20091;-49
2023/01/09 02:10:47;;;;;;;8.38;2.25;;;6.20;99.90;;;;;;5052412;28;20040;-52
2023/01/09 02:13:14;;;;;;;5.28;1.88;;;6.10;99.90;;;;;;5051219;28;20056;-50
2023/01/09 02:15:47;;;;;;;9.95;2.25;;;6.10;99.90;;;;;;5051474;28;20064;-52
2023/01/09 02:18:13;;;;;;;5.78;1.88;;;;;;;;;;5050996;28;20068;-49
2023/01/09 02:20:39;;;;;;;7.85;1.90;;;6.10;99.90;;;;;;5052310;28;20371;-50
2023/01/09 02:23:14;;;;;;;4.93;1.60;;;6.00;99.90;;;;;;5052511;28;20040;-51
2023/01/09 02:25:43;;;;;;;6.93;1.83;;;6.00;99.90;;;;;;5052126;28;20131;-49
2023/01/09 02:28:29;;;;;;;5.63;2.00;;;6.00;99.90;;;;;;5052053;28;20097;-53
2023/01/09 02:30:55;;;;;;;10.88;1.98;;;;;;;;;;5051324;28;20090;-48
2023/01/09 02:33:38;;;;;;;7.60;2.03;;;5.90;99.90;;;;;;5051456;28;20044;-52
2023/01/09 02:36:22;;;;;;;10.70;2.78;;;6.60;99.90;;;;;;5052342;28;20044;-51
2023/01/09 02:38:57;;;;;;;6.60;2.38;;;5.70;99.90;;;;;;5052091;28;20523;-51
2023/01/09 02:41:35;;;;;;;8.93;2.13;;;5.80;99.90;;;;;;5053727;28;20036;-49
2023/01/09 02:44:22;;;;;;;6.80;2.03;;;5.80;99.90;;;;;;5052248;28;20048;-49
2023/01/09 02:47:19;;;;;;;4.72;1.75;;;5.50;99.90;;;;;;5051948;28;20072;-51
2023/01/09 02:49:53;;;;;;;10.07;2.60;;;5.60;99.90;;;;;;5052526;28;20087;-50
2023/01/09 02:52:37;;;;;;;6.50;2.45;;;5.70;99.90;;;;;;5053241;28;20044;-52
2023/01/09 02:55:38;;;;;;;11.10;2.70;;;5.60;99.90;;;;;;5052466;28;20174;-49
2023/01/09 02:58:28;;;;;;;7.63;2.15;;;5.60;99.90;;;;;;5044759;28;20484;-49
2023/01/09 03:00:56;;;;;;;8.35;2.05;;;5.50;99.90;;;;;;5051397;28;20078;-50
2023/01/09 03:03:52;;;;;;;9.05;1.92;;;5.50;99.90;;;;;;5052305;28;21782;-51
2023/01/09 03:06:37;;;;;;;12.95;3.70;;;5.40;99.90;;;;;;5052406;28;20041;-49
2023/01/09 03:09:15;;;;;;;7.57;2.13;;;5.50;99.90;;;;;;5052597;28;20094;-47
2023/01/09 03:11:46;;;;;;;7.50;2.10;;;5.50;99.90;;;;;;5052116;28;20070;-48
2023/01/09 03:14:16;;;;;;;10.77;1.85;;;5.40;99.90;;;;;;5050920;28;20044;-50
2023/01/09 03:16:45;;;;;;;9.82;2.47;;;5.30;99.90;;;;;;5054606;28;20044;-49
2023/01/09 03:19:19;;;;;;;8.40;2.28;;;5.40;99.90;;;;;;5054064;28;20040;-49
2023/01/09 03:21:46;;;;;;;16.15;3.47;;;5.50;99.90;;;;;;5054526;28;20053;-50
2023/01/09 03:24:12;;;;;;;9.70;2.38;;;;;;;;;;5053974;28;20558;-50
2023/01/09 03:26:38;;;;;;;6.30;2.60;;;;;;;;;;5054016;28;20047;-50
2023/01/09 03:29:04;;;;;;;10.43;2.33;;;;;;;;;;5054748;28;20190;-52
2023/01/09 03:31:31;;;;;;;7.32;2.38;;;;;;;;;;5054980;28;20048;-47
2023/01/09 03:33:57;;;;;;;10.07;2.33;;;;;;;;;;5052897;28;20059;-51
2023/01/09 03:36:23;;;;;;;6.57;1.73;;;5.20;99.90;;;;;;5053320;28;20074;-51
2023/01/09 03:38:50;;;;;;;9.18;3.13;;;5.20;99.90;;;;;;5054791;28;25192;-51
2023/01/09 03:41:16;;;;;;;10.43;3.25;;;;;;;;;;5056452;28;20124;-49
2023/01/09 03:43:42;;;;;;;9.55;2.30;;;;;;;;;;5054543;28;20041;-51
2023/01/09 03:46:08;;;;;;;5.68;2.40;;;5.30;99.90;;;;;;5054331;28;20071;-47
2023/01/09 03:48:34;;;;;;;8.52;2.60;;;5.30;99.90;;;;;;5052197;28;20435;-49
2023/01/09 03:51:00;;;;;;;10.90;2.78;;;;;;;;;;5054912;28;20048;-52
2023/01/09 03:53:27;;;;;;;14.70;3.10;;;5.20;99.90;;;;;;5054468;28;20128;-50
2023/01/09 03:55:55;;;;;;;9.02;2.80;;;4.90;99.90;;;;;;5051812;28;20382;-51
2023/01/09 03:58:21;;;;;;;11.52;3.35;;;;;;;;;;5053711;28;20106;-49
2023/01/09 04:00:47;;;;;;;14.35;3.20;;;;;;;;;;5054125;28;20251;-50
2023/01/09 04:03:14;;;;;;;7.88;2.95;;;5.20;99.90;;;;;;5054193;28;20062;-51
2023/01/09 04:05:42;;;;;;;8.93;2.92;;;4.90;99.90;;;;;;5054105;28;20089;-50
2023/01/09 04:08:08;;;;;;;11.25;3.45;;;;;;;;;;5054175;28;20122;-50
2023/01/09 04:10:34;;;;;;;12.27;3.67;;;;;;;;;;5055809;28;20033;-50
2023/01/09 04:13:00;;;;;;;8.07;3.72;;;;;;;;;;5055385;28;20140;-50
2023/01/09 04:15:26;;;;;;;9.48;3.08;;;;;;;;;;5055920;28;20240;-49
2023/01/09 04:17:52;;;;;;;8.88;3.40;;;;;;;;;;5054987;28;20044;-49
2023/01/09 04:20:18;;;;;;;8.00;3.42;;;4.90;99.90;;;;;;5055040;28;20112;-51
2023/01/09 04:22:44;;;;;;;9.65;3.85;;;;;;;;;;5055037;28;20071;-52
2023/01/09 04:25:10;;;;;;;9.52;3.45;;;;;;;;;;5055376;28;20060;-50
2023/01/09 04:27:37;;;;;;;8.13;3.97;;;;;;;;;;5053411;28;20032;-47
2023/01/09 04:30:04;;;;;;;11.70;4.22;;;4.80;99.90;;;;;;5053904;28;20044;-51
2023/01/09 04:32:30;;;;;;;10.50;4.13;;;;;;;;;;5053844;28;20036;-51
2023/01/09 04:34:56;;;;;;;11.30;4.05;;;;;;;;;;5054964;28;20646;-51
2023/01/09 04:37:22;;;;;;;10.10;4.80;;;;;;;;;;5054480;28;20155;-52
2023/01/09 04:39:50;;;;;;;12.88;4.35;;;4.50;99.90;;;;;;5053393;28;20618;-50
2023/01/09 04:42:16;;;;;;;9.77;3.95;;;;;;;;;;5052861;28;20051;-52
2023/01/09 04:44:42;;;;;;;9.63;4.55;;;;;;;;;;5053059;28;20036;-51
2023/01/09 04:47:08;;;;;;;15.55;5.72;;;;;;;;;;5053449;28;20159;-49
2023/01/09 04:49:34;;;;;;;13.95;4.85;;;;;;;;;;5053855;28;20040;-50
2023/01/09 04:52:00;;;;;;;12.60;5.10;;;;;;;;;;5053747;28;20072;-52
2023/01/09 04:54:27;;;;;;;12.48;4.68;;;;;;;;;;5052615;28;20625;-51
2023/01/09 04:56:53;;;;;;;14.02;5.30;;;;;;;;;;5053207;28;20101;-48
2023/01/09 04:59:19;;;;;;;10.85;5.18;;;;;;;;;;5053105;28;20036;-49
2023/01/09 05:01:45;;;;;;;14.35;5.38;;;;;;;;;;5052658;28;20047;-52
2023/01/09 05:04:12;;;;;;;16.17;5.45;;;;;;;;;;5052660;28;20048;-50
2023/01/09 05:06:39;;;;;;;12.85;5.80;;;;;;;;;;5052470;28;20043;-50
2023/01/09 05:09:05;;;;;;;13.88;6.57;;;;;;;;;;5054145;28;20040;-50
2023/01/09 05:11:30;;;;;;;15.75;7.20;;;4.60;99.90;;;;;;5054710;28;20048;-50
2023/01/09 05:13:57;;;;;;;15.43;7.30;;;;;;;;;;5035293;28;20553;-49
2023/01/09 05:16:23;;;;;;;15.35;7.65;;;;;;;;;;5053089;28;20047;-49
2023/01/09 05:18:50;;;;;;;13.82;7.43;;;;;;;;;;5052419;28;20050;-52
2023/01/09 05:21:16;;;;;;;17.08;7.60;;;;;;;;;;5053504;28;20048;-48
2023/01/09 05:23:42;;;;;;;15.20;8.65;;;;;;;;;;5052644;28;20048;-50
2023/01/09 05:26:08;;;;;;;15.45;8.68;;;;;;;;;;5052405;28;20127;-50
2023/01/09 05:28:34;;;;;;;14.63;8.70;;;;;;;;;;5052492;28;20098;-52
2023/01/09 05:31:01;;;;;;;14.85;9.00;;;;;;;;;;5052841;28;20040;-51
2023/01/09 05:33:27;;;;;;;19.48;9.07;;;;;;;;;;5053576;28;20045;-51
2023/01/09 05:35:53;;;;;;;19.23;9.68;;;;;;;;;;5053875;28;20420;-51
2023/01/09 05:38:19;;;;;;;22.17;10.23;;;;;;;;;;5053793;28;20119;-50
2023/01/09 05:40:45;;;;;;;15.98;10.43;;;;;;;;;;5054214;28;20041;-52
2023/01/09 05:43:11;;;;;;;21.67;11.48;;;;;;;;;;5054882;28;20518;-50
2023/01/09 05:45:37;;;;;;;21.55;10.82;;;;;;;;;;5053128;28;20454;-52
2023/01/09 05:48:03;;;;;;;22.80;13.02;;;;;;;;;;5053605;28;20101;-50
2023/01/09 05:50:29;;;;;;;20.00;12.68;;;;;;;;;;5052574;28;20085;-51
2023/01/09 05:52:55;;;;;;;21.23;11.77;;;;;;;;;;5053516;28;20994;-49
2023/01/09 05:55:21;;;;;;;26.00;13.90;;;5.00;99.90;;;;;;5054176;28;20044;-49
2023/01/09 05:57:47;;;;;;;17.42;12.85;;;;;;;;;;5053071;28;20082;-48
2023/01/09 06:00:14;;;;;;;26.05;15.15;;;4.90;99.90;;;;;;5053676;28;20079;-49
2023/01/09 06:02:40;;;;;;;23.15;14.00;;;;;;;;;;5051627;28;20036;-49
2023/01/09 06:05:06;;;;;;;24.50;15.30;;;;;;;;;;5053148;28;20053;-50
2023/01/09 06:07:35;;;;;;;21.83;15.38;;;;;;;;;;5053098;28;20044;-51
2023/01/09 06:10:01;;;;;;;21.70;14.52;;;5.10;99.90;;;;;;5051807;28;20468;-49
2023/01/09 06:12:26;;;;;;;24.73;16.20;;;5.20;99.90;;;;;;5052506;28;20215;-52
2023/01/09 06:14:52;;;;;;;24.55;16.10;;;5.20;99.90;;;;;;5050888;28;20044;-48
2023/01/09 06:17:18;;;;;;;25.83;15.10;;;5.30;99.90;;;;;;5052612;28;20036;-48
2023/01/09 06:19:44;;;;;;;27.33;16.20;;;;;;;;;;5051671;28;20033;-47
2023/01/09 06:22:10;;;;;;;20.75;15.68;;;;;;;;;;5052046;28;20094;-48
2023/01/09 06:24:36;;;;;;;22.90;16.35;;;;;;;;;;5051577;28;20057;-49
2023/01/09 06:27:02;;;;;;;28.10;16.27;;;;;;;;;;5051149;28;22751;-47
2023/01/09 06:29:29;;;;;;;22.33;15.77;;;5.30;99.90;;;;;;5052471;28;20139;-49
2023/01/09 06:31:55;;;;;;;23.65;16.25;;;;;;;;;;5050566;28;20048;-49
2023/01/09 06:34:21;;;;;;;23.10;15.00;;;;;;;;;;5051840;28;20036;-48
2023/01/09 06:36:47;;;;;;;25.73;16.45;;;;;;;;;;5050421;28;20041;-46
2023/01/09 06:39:13;;;;;;;26.83;16.08;;;;;;;;;;5052609;28;20180;-50
2023/01/09 06:41:39;;;;;;;24.45;16.00;;;;;;;;;;5052276;28;20059;-49
2023/01/09 06:44:06;;;;;;;23.50;14.75;;;;;;;;;;5051733;28;20040;-49
2023/01/09 06:46:32;;;;;;;20.95;14.52;;;;;;;;;;5051525;28;20037;-47
2023/01/09 06:48:58;;;;;;;22.77;16.13;;;;;;;;;;5052063;28;20130;-48
2023/01/09 06:51:24;;;;;;;24.48;15.57;;;;;;;;;;5054856;28;20102;-46
2023/01/09 06:53:50;;;;;;;22.02;14.73;;;5.30;99.90;;;;;;5055581;28;20047;-49
2023/01/09 06:56:15;;;;;;;23.27;15.27;;;5.50;99.90;;;;;;5055833;28;20044;-51
2023/01/09 06:58:41;;;;;;;21.00;13.68;;;5.40;99.90;;;;;;5056084;28;20548;-49
2023/01/09 07:01:08;;;;;;;24.98;14.23;;;;;;;;;;5057936;28;20055;-51
2023/01/09 07:03:34;;;;;;;22.33;13.18;;;;;;;;;;5056294;28;20453;-51
2023/01/09 07:05:59;;;;;;;25.30;14.35;;;5.50;99.90;;;;;;5056056;28;20144;-49
2023/01/09 07:08:26;;;;;;;20.75;14.02;;;;;;;;;;5056223;28;20043;-49
2023/01/09 07:10:52;;;;;;;21.40;13.30;;;;;;;;;;5056684;28;20052;-49
2023/01/09 07:13:18;;;;;;;18.75;12.80;;;;;;;;;;5057597;28;20040;-49
2023/01/09 07:15:43;;;;;;;21.35;12.57;;;5.50;99.90;;;;;;5056637;28;20050;-49
2023/01/09 07:18:09;;;;;;;17.60;11.93;;;5.50;99.90;;;;;;5056160;28;20103;-49
2023/01/09 07:20:37;;;;;;;19.45;13.32;;;5.40;99.90;;;;;;5055709;28;20048;-51
2023/01/09 07:23:02;;;;;;;17.15;11.50;;;5.40;99.90;;;;;;5054969;28;20132;-46
2023/01/09 07:25:29;;;;;;;16.23;11.70;;;;;;;;;;5054282;28;20426;-48
2023/01/09 07:27:55;;;;;;;23.92;12.10;;;;;;;;;;5054030;28;20066;-51
2023/01/09 07:30:21;;;;;;;22.17;11.50;;;;;;;;;;5055073;28;20086;-49
2023/01/09 07:32:47;;;;;;;19.08;11.82;;;;;;;;;;5053797;28;20051;-50
2023/01/09 07:35:13;;;;;;;18.00;10.80;;;;;;;;;;5054611;28;20072;-50
2023/01/09 07:37:39;;;;;;;16.10;10.70;;;;;;;;;;5054332;28;20085;-50
2023/01/09 07:40:05;;;;;;;19.98;11.27;;;5.00;99.90;;;;;;5055597;28;20044;-50
2023/01/09 07:42:31;;;;;;;19.75;11.82;;;5.00;99.90;;;;;;5054688;28;20918;-50
2023/01/09 07:44:57;;;;;;;16.60;11.07;;;5.00;99.90;;;;;;5053835;28;20315;-48
2023/01/09 07:47:23;;;;;;;19.02;11.63;;;;;;;;;;5054029;28;20052;-49
2023/01/09 07:49:49;;;;;;;18.40;11.98;;;;;;;;;;5055121;28;20417;-48
2023/01/09 07:52:15;;;;;;;17.27;10.75;;;;;;;;;;5054615;28;20775;-52
2023/01/09 07:54:40;;;;;;;21.00;12.68;;;5.00;99.90;;;;;;5053454;28;20036;-47
2023/01/09 07:57:06;;;;;;;18.83;12.88;;;;;;;;;;5054537;28;20099;-50
2023/01/09 07:59:33;;;;;;;18.80;11.70;;;;;;;;;;5055555;28;20047;-50
2023/01/09 08:02:01;;;;;;;21.25;13.35;;;;;;;;;;5052894;28;20632;-45
2023/01/09 08:04:27;;;;;;;24.73;13.10;;;;;;;;;;5053659;28;20692;-50
2023/01/09 08:06:53;;;;;;;21.52;12.57;;;;;;;;;;5053854;28;20072;-50
2023/01/09 08:09:19;;;;;;;20.15;12.10;;;;;;;;;;5053139;28;20504;-50
2023/01/09 08:11:45;;;;;;;17.92;11.73;;;4.70;99.90;;;;;;5055239;28;20040;-47
2023/01/09 08:14:11;;;;;;;17.80;10.95;;;;;;;;;;5054057;28;20101;-50
2023/01/09 08:16:36;;;;;;;17.98;10.48;;;5.00;99.90;;;;;;5054967;28;20052;-50
2023/01/09 08:19:02;;;;;;;17.42;10.05;;;;;;;;;;5054897;28;20398;-50
2023/01/09 08:21:29;;;;;;;17.75;9.63;;;;;;;;;;5056028;28;20048;-52
2023/01/09 08:23:55;;;;;;;18.85;9.85;;;;;;;;;;5054557;28;20094;-47
2023/01/09 08:26:21;;;;;;;17.23;9.48;;;;;;;;;;5054527;28;20044;-50
2023/01/09 08:28:47;;;;;;;15.02;9.55;;;;;;;;;;5054353;28;20102;-49
2023/01/09 08:31:14;;;;;;;14.68;8.90;;;5.00;99.90;;;;;;5055652;28;20052;-47
2023/01/09 08:33:40;;;;;;;14.48;8.60;;;5.00;99.90;;;;;;5053933;28;20045;-50
2023/01/09 08:36:06;;;;;;;13.73;7.90;;;5.10;99.90;;;;;;5054693;28;20063;-50
2023/01/09 08:38:31;;;;;;;18.10;8.65;;;5.20;99.90;;;;;;5054050;28;20079;-48
2023/01/09 08:40:57;;;;;;;14.63;7.95;;;;;;;;;;5050591;28;20124;-47
2023/01/09 08:49:04;;;;;;;15.05;7.85;;;;;;;;;;5054076;28;20533;-49
2023/01/09 08:51:30;;;;;;;17.48;7.30;;;;;;;;;;5053576;28;20140;-48
2023/01/09 08:53:56;;;;;;;13.40;7.68;;;5.30;99.90;;;;;;5052775;28;20041;-50
2023/01/09 08:56:22;;;;;;;16.75;7.93;;;;;;;;;;5052836;28;20051;-50
2023/01/09 08:58:48;;;;;;;16.42;8.02;;;;;;;;;;5069102;28;20504;-49
2023/01/09 09:01:14;;;;;;;14.48;7.88;;;;;;;;;;5034719;28;20044;-50
2023/01/09 09:03:40;;;;;;;17.70;7.43;;;;;;;;;;5052357;28;20656;-47
2023/01/09 09:06:06;;;;;;;12.27;6.50;;;5.50;99.90;;;;;;5053746;28;20040;-50
2023/01/09 09:08:32;;;;;;;15.30;6.68;;;5.50;99.90;;;;;;5054050;28;20401;-50
2023/01/09 09:11:00;;;;;;;10.90;7.18;;;5.50;99.90;;;;;;5053383;28;20036;-49
2023/01/09 09:13:25;;;;;;;14.90;7.15;;;5.70;99.90;;;;;;5053056;28;20041;-50
2023/01/09 09:15:51;;;;;;;11.90;6.30;;;5.60;99.90;;;;;;5051783;28;20047;-47
2023/01/09 09:18:17;;;;;;;13.93;7.18;;;;;;;;;;5052158;28;20041;-52
2023/01/09 09:20:43;;;;;;;11.57;7.15;;;;;;;;;;5052855;28;20051;-49
2023/01/09 09:23:09;;;;;;;9.77;5.75;;;;;;;;;;5052695;28;20059;-49
2023/01/09 09:25:37;;;;;;;12.60;6.15;;;5.80;99.90;;;;;;5052057;28;20101;-49
2023/01/09 09:28:03;;;;;;;11.98;6.50;;;5.80;99.90;;;;;;5052218;28;20041;-48
2023/01/09 09:30:28;;;;;;;13.48;6.15;;;5.80;99.90;;;;;;5053105;28;20439;-51
2023/01/09 09:32:54;;;;;;;14.68;6.63;;;5.80;99.90;;;;;;5053226;28;20037;-47
2023/01/09 09:35:21;;;;;;;12.43;6.45;;;;;;;;;;5053402;28;20170;-46
2023/01/09 09:37:58;;;;;;;13.57;7.18;;;5.70;99.90;;;;;;5053478;28;20043;-50
2023/01/09 09:41:07;;;;;;;15.73;7.13;;;5.70;99.90;;;;;;5053001;28;20102;-47
2023/01/09 09:46:45;;;;;;;14.30;7.15;;;;;;;;;;5053898;28;20055;-51
2023/01/09 09:49:17;;;;;;;12.15;5.63;;;5.80;99.90;;;;;;5052008;28;20559;-50
2023/01/09 09:52:00;;;;;;;16.52;6.55;;;5.80;99.90;;;;;;5051487;28;20040;-51
2023/01/09 09:54:37;;;;;;;13.25;7.53;;;6.00;99.90;;;;;;5051424;28;20110;-47
2023/01/09 09:57:04;;;;;;;10.80;5.32;;;5.90;99.90;;;;;;5051141;28;20477;-49
2023/01/09 09:59:36;;;;;;;12.35;5.70;;;5.80;99.90;;;;;;5051671;28;20468;-51
2023/01/09 10:02:07;;;;;;;;;;;7.80;99.90;;;;;;5051072;28;20044;-49
2023/01/09 10:04:39;;;;;;;8.70;4.93;;;6.00;99.90;;;;;;5051591;28;20011;-49
2023/01/09 10:07:14;;;;;;;10.05;4.90;;;6.20;99.90;;;;;;5051549;28;20139;-48
2023/01/09 10:09:54;;;;;;;12.00;4.78;;;6.00;99.90;;;;;;5051333;28;20472;-49
2023/01/09 10:12:28;;;;;;;13.18;6.43;;;6.20;99.90;;;;;;5052629;28;20575;-46
2023/01/09 10:14:59;;;;;;;10.45;5.38;;;6.10;99.90;;;;;;5052006;28;20365;-50
2023/01/09 10:17:33;;;;;;;20.92;6.43;;;6.00;99.90;;;;;;5051124;28;20121;-48
2023/01/09 10:20:21;;;;;;;9.50;4.55;;;6.10;99.90;;;;;;5051960;28;20101;-47
2023/01/09 10:23:09;;;;;;;12.30;4.75;;;6.30;99.90;;;;;;5051697;28;20036;-50
2023/01/09 10:25:46;;;;;;;10.77;4.20;;;6.30;99.90;;;;;;5051102;28;20056;-50
2023/01/09 10:28:38;;;;;;;12.00;4.50;;;6.30;99.90;;;;;;5052161;28;20042;-49
2023/01/09 10:31:17;;;;;;;14.95;5.13;;;6.20;99.90;;;;;;5049147;28;20084;-50
2023/01/09 10:34:13;;;;;;;10.00;3.83;;;6.50;99.90;;;;;;5050888;28;20414;-48
2023/01/09 10:36:46;;;;;;;23.08;9.27;;;6.20;99.90;;;;;;5051868;28;20040;-46
2023/01/09 10:39:21;;;;;;;8.05;4.10;;;6.50;99.90;;;;;;5052758;28;20071;-47
2023/01/09 10:42:12;;;;;;;12.73;4.63;;;6.40;99.90;;;;;;5052133;28;20459;-49
2023/01/09 10:44:57;;;;;;;26.67;18.85;;;6.50;99.90;;;;;;5051987;28;20611;-50
2023/01/09 10:47:31;;;;;;;15.70;8.52;;;6.40;99.90;;;;;;5051735;28;20043;-50
2023/01/09 10:49:58;;;;;;;11.40;5.15;;;6.50;99.90;;;;;;5050769;28;20811;-49
2023/01/09 10:52:40;;;;;;;26.30;17.55;;;6.60;99.90;;;;;;5051326;28;20631;-50
2023/01/09 10:55:14;;;;;;;13.10;7.03;;;6.80;99.90;;;;;;5051126;28;20062;-50
2023/01/09 10:57:45;;;;;;;19.58;15.43;;;6.40;99.90;;;;;;5051195;28;20093;-49
2023/01/09 11:00:23;;;;;;;16.25;9.45;;;6.50;99.90;;;;;;5050512;28;20178;-51
2023/01/09 11:02:50;;;;;;;10.77;4.65;;;6.50;99.90;;;;;;5051818;28;20046;-50
2023/01/09 11:05:22;;;;;;;10.38;4.80;;;6.60;99.90;;;;;;5052337;28;20137;-50
2023/01/09 11:08:12;;;;;;;13.75;5.43;;;6.60;99.90;;;;;;5052072;28;20075;-48
2023/01/09 11:11:00;;;;;;;9.80;4.90;;;6.50;99.90;;;;;;5051220;28;20593;-51
2023/01/09 11:13:33;;;;;;;13.20;6.30;;;6.60;99.90;;;;;;5053060;28;20460;-51
2023/01/09 11:16:16;;;;;;;12.68;7.20;;;6.50;99.90;;;;;;5051894;28;20050;-50
2023/01/09 11:18:50;;;;;;;14.82;5.88;;;6.50;99.90;;;;;;5051331;28;20119;-51
2023/01/09 11:21:25;;;;;;;8.27;5.35;;;6.30;99.90;;;;;;5052007;28;20101;-51
2023/01/09 11:23:51;;;;;;;10.45;5.30;;;6.50;99.90;;;;;;5051632;28;20127;-50
2023/01/09 11:26:22;;;;;;;11.55;6.45;;;6.30;99.90;;;;;;5050469;28;20059;-52
2023/01/09 11:29:19;;;;;;;13.07;5.30;;;6.40;99.90;;;;;;5050055;28;21166;-49
2023/01/09 11:31:52;;;;;;;15.35;5.72;;;6.50;99.90;;;;;;5049820;28;20559;-51
2023/01/09 11:34:21;;;;;;;11.43;5.25;;;6.40;99.90;;;;;;5050648;28;20055;-49
2023/01/09 11:36:50;;;;;;;13.10;6.05;;;6.30;99.90;;;;;;5051775;28;20566;-51
2023/01/09 11:39:27;;;;;;;16.90;9.23;;;6.40;99.90;;;;;;5054314;28;20048;-49
2023/01/09 11:41:58;;;;;;;15.35;5.43;;;6.40;99.90;;;;;;5052467;28;20528;-50
2023/01/09 11:44:26;;;;;;;14.70;5.77;;;6.40;99.90;;;;;;5055894;28;20106;-52
2023/01/09 11:46:52;;;;;;;16.83;8.55;;;6.50;99.90;;;;;;5053807;28;20080;-51
2023/01/09 11:49:36;;;;;;;16.17;7.50;;;6.40;99.90;;;;;;5052318;28;20560;-51
2023/01/09 11:52:19;;;;;;;12.32;6.90;;;6.50;99.90;;;;;;5053907;28;20459;-52
2023/01/09 11:54:54;;;;;;;13.73;6.30;;;6.50;99.90;;;;;;5054718;28;20128;-51
2023/01/09 11:57:23;;;;;;;13.60;6.00;;;6.50;99.90;;;;;;5054069;28;20248;-49
2023/01/09 11:59:49;;;;;;;14.27;6.40;;;6.50;99.90;;;;;;5054783;28;20397;-52
2023/01/09 12:02:45;;;;;;;14.23;6.90;;;6.60;99.90;;;;;;5052917;28;20142;-52
2023/01/09 12:06:01;;;;;;;9.45;5.90;;;6.50;99.90;;;;;;5053728;28;20062;-51
2023/01/09 12:08:58;;;;;;;13.75;6.57;;;6.50;99.90;;;;;;5043029;28;20256;-48
2023/01/09 12:11:55;;;;;;;11.30;5.68;;;6.50;99.90;;;;;;5054341;28;20036;-50
2023/01/09 12:14:27;;;;;;;12.10;6.03;;;6.50;99.90;;;;;;5055305;28;20044;-51
2023/01/09 12:17:11;;;;;;;11.68;6.28;;;6.40;99.90;;;;;;5085152;28;20043;-53
2023/01/09 12:19:45;;;;;;;16.73;7.68;;;6.40;99.90;;;;;;5054360;28;20059;-53
2023/01/09 12:22:26;;;;;;;12.75;6.68;;;6.50;99.90;;;;;;5052497;28;20659;-52
2023/01/09 12:24:52;;;;;;;12.90;6.28;;;6.40;99.90;;;;;;5053232;28;20048;-52
2023/01/09 12:27:33;;;;;;;13.02;6.38;;;6.60;99.90;;;;;;5053694;28;20691;-53
2023/01/09 12:30:33;;;;;;;11.00;6.20;;;6.60;99.90;;;;;;5054305;28;20131;-52
2023/01/09 12:33:29;;;;;;;12.50;6.82;;;6.60;99.90;;;;;;5052933;28;20040;-53
2023/01/09 12:36:16;;;;;;;17.73;7.53;;;6.40;99.90;;;;;;5054327;28;20052;-53
2023/01/09 12:38:57;;;;;;;15.13;7.32;;;6.60;99.90;;;;;;5053216;28;20452;-53
2023/01/09 12:42:07;;;;;;;11.68;7.50;;;7.10;99.90;;;;;;5052454;28;20052;-52
2023/01/09 12:44:41;;;;;;;11.48;7.40;;;6.70;99.90;;;;;;5025396;28;20034;-51
2023/01/09 12:47:41;;;;;;;17.95;8.63;;;6.60;99.90;;;;;;5009370;28;20200;-52
2023/01/09 12:50:46;;;;;;;17.50;8.45;;;6.70;99.90;;;;;;5044622;28;20068;-50
2023/01/09 12:53:25;;;;;;;13.77;8.48;;;6.70;99.90;;;;;;5053361;28;20048;-52
2023/01/09 12:56:11;;;;;;;13.45;8.02;;;6.90;99.90;;;;;;5050654;28;20060;-49
2023/01/09 12:58:56;;;;;;;14.45;8.38;;;7.00;99.90;;;;;;5052592;28;20084;-52
2023/01/09 13:01:28;;;;;;;15.18;8.13;;;6.50;99.90;;;;;;5052616;28;20561;-51
2023/01/09 13:04:17;;;;;;;14.32;8.27;;;8.00;99.90;;;;;;5052766;28;20098;-50
2023/01/09 13:06:50;;;;;;;16.60;9.98;;;7.20;99.90;;;;;;5052405;28;20436;-52
2023/01/09 13:09:32;;;;;;;14.02;8.90;;;6.80;99.90;;;;;;5053445;28;20037;-53
2023/01/09 13:12:09;;;;;;;15.23;8.82;;;6.90;99.90;;;;;;5052130;28;20533;-52
2023/01/09 13:14:52;;;;;;;12.80;8.70;;;6.90;99.90;;;;;;5054637;28;20068;-51
2023/01/09 13:17:35;;;;;;;20.35;9.45;;;8.80;99.90;;;;;;5051556;28;20124;-51
2023/01/09 13:20:00;;;;;;;13.07;8.80;;;9.00;99.90;;;;;;5050965;28;20033;-47
2023/01/09 13:22:28;;;;;;;15.15;8.75;;;8.70;99.90;;;;;;5050617;28;20678;-51
2023/01/09 13:25:12;;;;;;;18.10;9.65;;;7.30;99.90;;;;;;5052849;28;20086;-50
2023/01/09 13:27:40;;;;;;;14.63;8.95;;;7.00;99.90;;;;;;5052224;28;20052;-49
2023/01/09 13:30:11;;;;;;;14.32;8.27;;;7.00;99.90;;;;;;5053033;28;20390;-50
2023/01/09 13:32:47;;;;;;;15.07;8.70;;;7.20;99.90;;;;;;5052945;28;20106;-48
2023/01/09 13:35:14;;;;;;;11.43;7.82;;;9.10;99.90;;;;;;5052794;28;20090;-52
2023/01/09 13:37:41;;;;;;;13.40;9.13;;;7.10;99.90;;;;;;5052419;28;20036;-52
2023/01/09 13:40:19;;;;;;;15.18;8.07;;;7.20;99.90;;;;;;5053028;28;20059;-50
2023/01/09 13:43:04;;;;;;;17.35;9.50;;;7.20;99.90;;;;;;5052873;28;20093;-52
2023/01/09 13:45:34;;;;;;;13.27;8.10;;;7.10;99.90;;;;;;5052920;28;20041;-48
2023/01/09 13:48:16;;;;;;;14.60;8.63;;;7.30;99.90;;;;;;5050563;28;20049;-53
2023/01/09 13:50:43;;;;;;;17.13;9.18;;;8.00;99.90;;;;;;5053195;28;20048;-51
2023/01/09 13:53:18;;;;;;;18.23;7.90;;;7.30;99.90;;;;;;5052297;28;20040;-53